Aviation Digital Data Service (ADDS)

Output produced by METARs form (0156 UTC 25 February 2018)
found at http://www.aviationweather.gov/adds/metars/
 
OSDI 250200Z 26008KT 2000 BR 06/04 Q1011
TAF OSDI 2500/2606 VRB03KT 3000 BR 
     TEMPO 2502/2506 VRB03KT 0200 FG 
     BECMG 2507/2509 24010KT 9999 FEW030 SCT100
       
OSKL 250000Z 03006KT CAVOK 08/07 Q1010
OSLK 250200Z 12006KT 9999 SCT030 BKN100 14/10 Q1008
OSLK 241600Z 2418/2518 16015G25KT 5000 SHRA FEW026CB SCT030 BKN100 
     TEMPO 2506/2518 23015G30KT 5000 -TSRA SCT026CB SCT030 BKN100
       
OSLK 250200Z 12006KT 9999 SCT030 BKN100 14/10 Q1008
OSLK 241600Z 2418/2518 16015G25KT 5000 SHRA FEW026CB SCT030 BKN100 
     TEMPO 2506/2518 23015G30KT 5000 -TSRA SCT026CB SCT030 BKN100
       
OSDI 250200Z 26008KT 2000 BR 06/04 Q1011
TAF OSDI 2500/2606 VRB03KT 3000 BR 
     TEMPO 2502/2506 VRB03KT 0200 FG 
     BECMG 2507/2509 24010KT 9999 FEW030 SCT100
       
OSKL 250000Z 03006KT CAVOK 08/07 Q1010